createdAt,value
2023-05-23T00:00:02.792Z,15.83
2023-05-23T00:02:30.838Z,13.67
2023-05-23T00:05:03.713Z,14.63
2023-05-23T00:07:32.540Z,14.87
2023-05-23T00:10:00.519Z,16.17
2023-05-23T00:12:29.546Z,14.70
2023-05-23T00:14:57.632Z,15.67
2023-05-23T00:17:26.481Z,16.73
2023-05-23T00:19:56.098Z,15.20
2023-05-23T00:22:25.701Z,16.53
2023-05-23T00:24:54.007Z,16.97
2023-05-23T00:27:21.980Z,16.30
2023-05-23T00:29:50.028Z,15.53
2023-05-23T00:32:18.032Z,15.97
2023-05-23T00:34:46.878Z,17.97
2023-05-23T00:37:15.261Z,18.27
2023-05-23T00:39:44.605Z,18.70
2023-05-23T00:42:12.790Z,16.83
2023-05-23T00:44:40.953Z,17.90
2023-05-23T00:47:09.739Z,18.90
2023-05-23T00:49:37.775Z,17.90
2023-05-23T00:52:06.754Z,17.20
2023-05-23T00:54:35.831Z,18.47
2023-05-23T00:57:05.780Z,18.53
2023-05-23T00:59:34.697Z,22.03
2023-05-23T01:02:03.971Z,18.03
2023-05-23T01:04:34.346Z,18.90
2023-05-23T01:07:02.803Z,25.83
2023-05-23T01:09:31.392Z,24.50
2023-05-23T01:12:15.424Z,28.13
2023-05-23T01:14:48.660Z,29.07
2023-05-23T01:17:22.398Z,33.67
2023-05-23T01:19:58.440Z,32.93
2023-05-23T01:22:41.541Z,39.50
2023-05-23T01:25:24.399Z,41.47
2023-05-23T01:27:56.940Z,43.10
2023-05-23T01:30:26.632Z,44.33
2023-05-23T01:32:57.771Z,48.77
2023-05-23T01:35:28.055Z,46.00
2023-05-23T01:37:56.444Z,47.77
2023-05-23T01:40:25.896Z,50.27
2023-05-23T01:42:57.691Z,49.13
2023-05-23T01:45:28.201Z,48.03
2023-05-23T01:47:57.776Z,46.97
2023-05-23T01:50:26.814Z,42.20
2023-05-23T01:52:56.120Z,42.57
2023-05-23T01:55:26.709Z,39.30
2023-05-23T01:57:58.066Z,36.23
2023-05-23T02:00:26.304Z,38.87
2023-05-23T02:02:54.248Z,36.37
2023-05-23T02:05:22.267Z,35.17
2023-05-23T02:07:50.456Z,35.33
2023-05-23T02:10:18.669Z,31.90
2023-05-23T02:12:46.584Z,31.90
2023-05-23T02:15:17.497Z,31.37
2023-05-23T02:17:45.529Z,30.43
2023-05-23T02:20:14.516Z,29.53
2023-05-23T02:22:42.662Z,26.80
2023-05-23T02:25:11.060Z,26.37
2023-05-23T02:27:39.069Z,25.57
2023-05-23T02:30:09.158Z,26.77
2023-05-23T02:32:38.836Z,25.97
2023-05-23T02:35:07.549Z,25.10
2023-05-23T02:37:35.493Z,22.77
2023-05-23T02:40:04.569Z,23.53
2023-05-23T02:42:32.557Z,24.10
2023-05-23T02:45:00.512Z,20.97
2023-05-23T02:47:28.561Z,20.60
2023-05-23T02:49:58.012Z,20.53
2023-05-23T02:52:26.583Z,20.77
2023-05-23T02:54:54.585Z,20.80
2023-05-23T02:57:22.534Z,20.43
2023-05-23T02:59:50.468Z,23.33
2023-05-23T03:02:18.429Z,24.10
2023-05-23T03:04:46.545Z,21.07
2023-05-23T03:07:27.530Z,19.40
2023-05-23T03:09:56.630Z,22.23
2023-05-23T03:12:24.515Z,19.00
2023-05-23T03:14:52.449Z,19.27
2023-05-23T03:17:20.468Z,18.73
2023-05-23T03:19:48.391Z,18.73
2023-05-23T03:22:17.667Z,18.37
2023-05-23T03:24:45.527Z,19.80
2023-05-23T03:27:13.412Z,18.57
2023-05-23T03:29:41.315Z,17.90
2023-05-23T03:32:09.403Z,20.27
2023-05-23T03:34:38.702Z,20.90
2023-05-23T03:37:06.864Z,18.77
2023-05-23T03:39:37.352Z,18.90
2023-05-23T03:42:07.974Z,21.57
2023-05-23T03:44:35.871Z,20.73
2023-05-23T03:47:03.753Z,22.93
2023-05-23T03:49:32.846Z,21.97
2023-05-23T03:52:00.921Z,25.67
2023-05-23T03:54:28.826Z,21.67
2023-05-23T03:56:58.168Z,23.53
2023-05-23T03:59:26.347Z,24.60
2023-05-23T04:01:54.325Z,20.23
2023-05-23T04:04:22.350Z,19.77
2023-05-23T04:06:50.677Z,21.80
2023-05-23T04:09:19.166Z,21.97
2023-05-23T04:11:47.513Z,20.87
2023-05-23T04:14:17.530Z,19.10
2023-05-23T04:16:45.551Z,19.17
2023-05-23T04:19:13.680Z,18.20
2023-05-23T04:21:41.684Z,18.63
2023-05-23T04:24:09.629Z,21.03
2023-05-23T04:26:37.686Z,17.33
2023-05-23T04:29:06.608Z,16.77
2023-05-23T04:31:36.006Z,16.97
2023-05-23T04:34:04.018Z,17.13
2023-05-23T04:36:32.061Z,17.17
2023-05-23T04:39:00.063Z,16.17
2023-05-23T04:41:28.453Z,15.80
2023-05-23T04:43:58.579Z,15.77
2023-05-23T04:46:27.587Z,13.77
2023-05-23T04:48:58.822Z,14.57
2023-05-23T04:51:27.404Z,13.43
2023-05-23T04:53:55.901Z,13.70
2023-05-23T04:56:28.225Z,17.17
2023-05-23T04:58:57.098Z,16.37
2023-05-23T05:01:25.160Z,17.03
2023-05-23T05:03:53.385Z,12.10
2023-05-23T05:06:24.416Z,17.03
2023-05-23T05:08:52.466Z,12.70
2023-05-23T05:11:20.423Z,15.53
2023-05-23T05:13:48.455Z,15.10
2023-05-23T05:16:16.543Z,11.07
2023-05-23T05:18:44.551Z,13.63
2023-05-23T05:21:12.423Z,12.63
2023-05-23T05:23:41.934Z,10.90
2023-05-23T05:26:09.838Z,14.90
2023-05-23T05:28:38.264Z,14.07
2023-05-23T05:31:07.322Z,14.50
2023-05-23T05:33:36.320Z,15.13
2023-05-23T05:36:04.406Z,13.10
2023-05-23T05:38:32.246Z,14.03
2023-05-23T05:41:01.556Z,17.73
2023-05-23T05:43:29.424Z,13.77
2023-05-23T05:45:57.573Z,14.97
2023-05-23T05:48:26.476Z,16.17
2023-05-23T05:50:55.053Z,13.53
2023-05-23T05:53:22.913Z,12.87
2023-05-23T05:55:51.402Z,13.67
2023-05-23T05:58:20.909Z,11.23
2023-05-23T06:00:50.379Z,10.50
2023-05-23T06:03:18.438Z,11.13
2023-05-23T06:05:46.374Z,9.93
2023-05-23T06:08:14.436Z,12.07
2023-05-23T06:10:42.773Z,10.13
2023-05-23T06:13:11.434Z,10.63
2023-05-23T06:15:41.360Z,9.63
2023-05-23T06:18:09.452Z,10.77
2023-05-23T06:20:37.743Z,9.03
2023-05-23T06:23:06.428Z,8.97
2023-05-23T06:25:34.375Z,8.90
2023-05-23T06:28:02.515Z,11.00
2023-05-23T06:30:30.705Z,10.83
2023-05-23T06:33:00.316Z,10.43
2023-05-23T06:35:28.715Z,10.90
2023-05-23T06:37:56.710Z,11.13
2023-05-23T06:40:24.557Z,11.37
2023-05-23T06:42:53.388Z,12.93
2023-05-23T06:45:21.256Z,13.17
2023-05-23T06:47:49.556Z,16.47
2023-05-23T06:50:20.206Z,12.33
2023-05-23T06:52:48.695Z,13.73
2023-05-23T06:55:19.589Z,11.97
2023-05-23T06:57:50.500Z,11.33
2023-05-23T07:00:19.171Z,10.67
2023-05-23T07:02:48.774Z,10.97
2023-05-23T07:05:18.613Z,9.80
2023-05-23T07:07:46.660Z,10.33
2023-05-23T07:10:14.627Z,11.00
2023-05-23T07:12:42.556Z,8.57
2023-05-23T07:15:11.481Z,9.50
2023-05-23T07:17:39.442Z,9.27
2023-05-23T07:20:08.896Z,10.80
2023-05-23T07:22:38.340Z,10.33
2023-05-23T07:25:07.731Z,9.80
2023-05-23T07:27:36.353Z,9.57
2023-05-23T07:30:04.753Z,8.47
2023-05-23T07:32:32.956Z,8.27
2023-05-23T07:35:00.890Z,8.80
2023-05-23T07:37:28.873Z,7.77
2023-05-23T07:39:58.337Z,8.23
2023-05-23T07:42:27.407Z,5.53
2023-05-23T07:44:55.531Z,4.63
2023-05-23T07:47:24.458Z,5.73
2023-05-23T07:49:54.454Z,6.57
2023-05-23T07:52:23.714Z,6.00
2023-05-23T07:54:51.657Z,6.77
2023-05-23T07:57:21.207Z,7.50
2023-05-23T07:59:49.182Z,6.43
2023-05-23T08:02:17.367Z,8.33
2023-05-23T08:04:46.096Z,7.50
2023-05-23T08:07:14.175Z,7.13
2023-05-23T08:09:44.873Z,7.87
2023-05-23T08:12:16.354Z,9.37
2023-05-23T08:14:51.501Z,7.97
2023-05-23T08:17:20.409Z,8.83
2023-05-23T08:19:49.434Z,11.07
2023-05-23T08:22:17.598Z,13.47
2023-05-23T08:24:45.788Z,14.60
2023-05-23T08:27:13.916Z,16.13
2023-05-23T08:29:42.544Z,15.27
2023-05-23T08:32:12.103Z,13.57
2023-05-23T08:34:42.562Z,12.67
2023-05-23T08:37:10.448Z,13.93
2023-05-23T08:39:38.473Z,15.77
2023-05-23T08:42:07.094Z,14.63
2023-05-23T08:44:35.246Z,14.67
2023-05-23T08:47:06.540Z,12.10
2023-05-23T08:49:35.979Z,16.60
2023-05-23T08:52:04.870Z,15.50
2023-05-23T08:54:34.083Z,15.17
2023-05-23T08:57:02.541Z,15.67
2023-05-23T08:59:32.070Z,16.03
2023-05-23T09:02:01.195Z,13.63
2023-05-23T09:04:29.365Z,16.10
2023-05-23T09:07:00.428Z,14.00
2023-05-23T09:09:28.399Z,14.27
2023-05-23T09:11:57.100Z,16.63
2023-05-23T09:14:25.059Z,18.67
2023-05-23T09:16:53.006Z,17.53
2023-05-23T09:19:21.964Z,19.67
2023-05-23T09:21:50.755Z,20.00
2023-05-23T09:24:20.729Z,16.23
2023-05-23T09:26:49.488Z,22.57
2023-05-23T09:29:21.245Z,20.07
2023-05-23T09:31:49.387Z,17.33
2023-05-23T09:34:17.296Z,17.37
2023-05-23T09:36:47.887Z,15.60
2023-05-23T09:39:15.820Z,19.40
2023-05-23T09:41:45.202Z,13.70
2023-05-23T09:44:14.081Z,12.03
2023-05-23T09:46:42.156Z,16.07
2023-05-23T09:49:19.431Z,19.63
2023-05-23T09:51:58.668Z,12.40
2023-05-23T09:54:27.020Z,11.30
2023-05-23T09:56:57.708Z,16.93
2023-05-23T09:59:30.156Z,11.50
2023-05-23T10:01:59.046Z,14.67
2023-05-23T10:04:27.274Z,15.57
2023-05-23T10:07:00.148Z,10.70
2023-05-23T10:09:30.490Z,8.67
2023-05-23T10:12:38.616Z,13.70
2023-05-23T10:15:08.992Z,7.13
2023-05-23T10:17:43.995Z,9.63
2023-05-23T10:20:14.120Z,8.33
2023-05-23T10:22:43.430Z,9.37
2023-05-23T10:25:11.743Z,7.10
2023-05-23T10:27:41.438Z,7.23
2023-05-23T10:30:10.769Z,7.57
2023-05-23T10:32:40.968Z,4.93
2023-05-23T10:35:16.632Z,8.10
2023-05-23T10:37:50.148Z,6.43
2023-05-23T10:40:25.580Z,5.63
2023-05-23T10:43:02.362Z,8.27
2023-05-23T10:45:30.646Z,6.57
2023-05-23T10:48:01.465Z,3.50
2023-05-23T10:50:34.406Z,4.10
2023-05-23T10:53:03.743Z,9.10
2023-05-23T10:55:35.716Z,5.70
2023-05-23T10:58:17.500Z,6.20
2023-05-23T11:00:55.276Z,8.10
2023-05-23T11:03:35.431Z,8.57
2023-05-23T11:06:04.117Z,9.80
2023-05-23T11:08:47.597Z,8.60
2023-05-23T11:11:17.436Z,7.90
2023-05-23T11:14:03.977Z,9.60
2023-05-23T11:16:33.855Z,11.63
2023-05-23T11:19:26.132Z,7.97
2023-05-23T11:21:55.986Z,10.73
2023-05-23T11:24:24.435Z,10.73
2023-05-23T11:27:00.237Z,9.23
2023-05-23T11:29:30.071Z,9.10
2023-05-23T11:31:58.476Z,11.23
2023-05-23T11:34:27.508Z,11.37
2023-05-23T11:36:59.561Z,13.93
2023-05-23T11:39:27.428Z,12.73
2023-05-23T11:42:03.153Z,10.83
2023-05-23T11:44:32.415Z,15.83
2023-05-23T11:47:01.575Z,12.47
2023-05-23T11:49:30.859Z,15.30
2023-05-23T11:51:59.825Z,11.17
2023-05-23T11:54:28.131Z,13.63
2023-05-23T11:56:56.544Z,10.87
2023-05-23T11:59:26.203Z,12.90
2023-05-23T12:01:55.560Z,9.77
2023-05-23T12:04:23.864Z,18.13
2023-05-23T12:06:52.604Z,10.40
2023-05-23T12:09:21.472Z,18.43
2023-05-23T12:11:50.390Z,13.00
2023-05-23T12:14:19.373Z,12.07
2023-05-23T12:16:48.143Z,12.47
2023-05-23T12:19:18.688Z,14.73
2023-05-23T12:21:49.629Z,15.57
2023-05-23T12:24:19.491Z,12.83
2023-05-23T12:26:51.463Z,8.87
2023-05-23T12:29:23.726Z,14.27
2023-05-23T12:31:52.817Z,14.57
2023-05-23T12:34:25.543Z,13.23
2023-05-23T12:37:10.406Z,11.23
2023-05-23T12:39:45.389Z,12.90
2023-05-23T12:42:13.430Z,9.73
2023-05-23T12:44:42.433Z,10.03
2023-05-23T12:47:10.775Z,12.33
2023-05-23T12:49:40.386Z,10.23
2023-05-23T12:52:08.628Z,10.90
2023-05-23T12:54:37.456Z,9.77
2023-05-23T12:57:05.478Z,22.97
2023-05-23T12:59:33.477Z,10.40
2023-05-23T13:02:02.640Z,13.17
2023-05-23T13:04:32.459Z,12.70
2023-05-23T13:07:02.044Z,11.53
2023-05-23T13:09:29.936Z,13.10
2023-05-23T13:11:59.424Z,9.47
2023-05-23T13:14:27.428Z,6.87
2023-05-23T13:16:55.738Z,10.90
2023-05-23T13:19:23.849Z,9.30
2023-05-23T13:21:51.930Z,11.40
2023-05-23T13:24:21.211Z,10.60
2023-05-23T13:26:49.153Z,10.07
2023-05-23T13:29:16.991Z,9.17
2023-05-23T13:31:45.006Z,11.73
2023-05-23T13:34:13.110Z,14.77
2023-05-23T13:36:43.192Z,7.77
2023-05-23T13:39:11.415Z,12.83
2023-05-23T13:41:41.429Z,9.53
2023-05-23T13:44:10.785Z,10.87
2023-05-23T13:49:36.748Z,12.97
2023-05-23T13:52:04.902Z,15.57
2023-05-23T13:54:33.015Z,7.77
2023-05-23T13:57:03.502Z,9.37
2023-05-23T13:59:31.603Z,8.10
2023-05-23T14:01:59.554Z,10.13
2023-05-23T14:04:27.587Z,9.77
2023-05-23T14:06:55.630Z,11.73
2023-05-23T14:09:23.704Z,12.43
2023-05-23T14:11:52.446Z,10.27
2023-05-23T14:14:21.989Z,9.60
2023-05-23T14:16:51.933Z,11.87
2023-05-23T14:19:20.044Z,10.30
2023-05-23T14:21:48.199Z,14.70
2023-05-23T14:24:16.146Z,13.77
2023-05-23T14:26:44.523Z,10.97
2023-05-23T14:29:12.537Z,8.97
2023-05-23T14:31:41.956Z,11.63
2023-05-23T14:34:10.049Z,12.70
2023-05-23T14:36:38.386Z,13.50
2023-05-23T14:39:10.509Z,13.77
2023-05-23T14:41:38.724Z,10.87
2023-05-23T14:44:07.019Z,11.00
2023-05-23T14:46:35.350Z,13.17
2023-05-23T14:49:07.199Z,11.17
2023-05-23T14:51:48.398Z,9.57
2023-05-23T14:54:19.105Z,15.23
2023-05-23T14:56:47.354Z,10.23
2023-05-23T14:59:17.061Z,14.30
2023-05-23T15:01:45.341Z,9.80
2023-05-23T15:04:15.068Z,10.07
2023-05-23T15:06:43.072Z,8.77
2023-05-23T15:09:12.207Z,12.87
2023-05-23T15:11:42.500Z,8.20
2023-05-23T15:14:10.679Z,13.10
2023-05-23T15:16:39.248Z,10.30
2023-05-23T15:19:08.068Z,10.60
2023-05-23T15:21:38.518Z,12.27
2023-05-23T15:24:09.419Z,11.40
2023-05-23T15:26:37.422Z,12.37
2023-05-23T15:29:06.441Z,9.50
2023-05-23T15:31:34.404Z,11.60
2023-05-23T15:34:02.531Z,6.83
2023-05-23T15:36:30.844Z,12.03
2023-05-23T15:39:00.172Z,7.10
2023-05-23T15:41:28.219Z,8.27
2023-05-23T15:43:56.178Z,15.67
2023-05-23T15:46:24.241Z,15.13
2023-05-23T15:48:52.278Z,9.90
2023-05-23T15:51:20.462Z,10.13
2023-05-23T15:54:00.662Z,7.77
2023-05-23T15:56:31.890Z,6.97
2023-05-23T15:58:59.823Z,9.03
2023-05-23T16:01:29.687Z,9.87
2023-05-23T16:03:57.823Z,7.80
2023-05-23T16:06:28.320Z,9.80
2023-05-23T16:08:56.491Z,7.03
2023-05-23T16:11:24.527Z,9.70
2023-05-23T16:13:54.726Z,8.70
2023-05-23T16:16:22.807Z,8.63
2023-05-23T16:18:52.205Z,6.93
2023-05-23T16:21:21.024Z,9.33
2023-05-23T16:23:49.443Z,10.77
2023-05-23T16:26:18.147Z,15.03
2023-05-23T16:28:46.472Z,7.33
2023-05-23T16:31:17.340Z,10.50
2023-05-23T16:33:45.604Z,9.87
2023-05-23T16:36:13.548Z,6.37
2023-05-23T16:38:41.574Z,12.37
2023-05-23T16:41:09.734Z,10.37
2023-05-23T16:43:37.753Z,5.37
2023-05-23T16:46:06.240Z,12.20
2023-05-23T16:48:35.780Z,8.10
2023-05-23T16:51:03.785Z,5.40
2023-05-23T16:53:32.615Z,6.37
2023-05-23T16:56:10.415Z,10.37
2023-05-23T16:58:38.638Z,11.73
2023-05-23T17:01:07.747Z,7.87
2023-05-23T17:03:37.464Z,8.07
2023-05-23T17:06:05.860Z,9.73
2023-05-23T17:08:33.966Z,12.23
2023-05-23T17:11:02.682Z,9.13
2023-05-23T17:13:30.688Z,12.27
2023-05-23T17:15:58.625Z,8.60
2023-05-23T17:18:26.890Z,7.47
2023-05-23T17:20:56.458Z,10.63
2023-05-23T17:23:24.426Z,8.10
2023-05-23T17:25:52.834Z,8.90
2023-05-23T17:28:21.537Z,9.77
2023-05-23T17:30:51.653Z,8.07
2023-05-23T17:33:19.776Z,9.07
2023-05-23T17:35:47.911Z,12.40
2023-05-23T17:38:17.593Z,8.13
2023-05-23T17:40:45.876Z,10.80
2023-05-23T17:43:14.062Z,8.53
2023-05-23T17:45:42.104Z,9.97
2023-05-23T17:48:10.348Z,7.33
2023-05-23T17:50:39.038Z,10.47
2023-05-23T17:53:07.175Z,13.73
2023-05-23T17:55:37.609Z,12.43
2023-05-23T17:58:05.536Z,8.50
2023-05-23T18:00:34.504Z,7.07
2023-05-23T18:03:02.904Z,10.50
2023-05-23T18:05:30.833Z,9.17
2023-05-23T18:07:59.508Z,7.50
2023-05-23T18:10:27.511Z,14.60
2023-05-23T18:12:56.883Z,10.60
2023-05-23T18:15:25.675Z,14.00
2023-05-23T18:17:55.679Z,8.43
2023-05-23T18:20:23.773Z,8.20
2023-05-23T18:22:53.950Z,8.97
2023-05-23T18:25:27.294Z,13.77
2023-05-23T18:27:58.866Z,11.67
2023-05-23T18:30:27.574Z,8.20
2023-05-23T18:32:55.760Z,9.07
2023-05-23T18:35:25.777Z,8.87
2023-05-23T18:37:54.503Z,8.50
2023-05-23T18:40:24.091Z,8.97
2023-05-23T18:42:52.327Z,6.80
2023-05-23T18:45:21.984Z,8.00
2023-05-23T18:47:49.984Z,7.23
2023-05-23T18:50:18.635Z,9.17
2023-05-23T18:52:46.547Z,7.67
2023-05-23T18:55:14.470Z,4.67
2023-05-23T18:57:42.513Z,7.57
2023-05-23T19:00:11.676Z,8.30
2023-05-23T19:02:44.324Z,12.30
2023-05-23T19:05:12.728Z,10.80
2023-05-23T19:07:40.844Z,7.30
2023-05-23T19:10:09.520Z,9.37
2023-05-23T19:12:38.771Z,11.73
2023-05-23T19:15:09.282Z,10.33
2023-05-23T19:17:37.342Z,9.73
2023-05-23T19:20:08.231Z,8.90
2023-05-23T19:22:47.040Z,13.00
2023-05-23T19:25:18.924Z,10.23
2023-05-23T19:27:46.909Z,7.37
2023-05-23T19:30:14.844Z,11.77
2023-05-23T19:32:42.808Z,9.27
2023-05-23T19:35:13.991Z,11.07
2023-05-23T19:37:44.435Z,5.40
2023-05-23T19:40:13.454Z,14.03
2023-05-23T19:42:41.377Z,12.77
2023-05-23T19:45:09.976Z,12.07
2023-05-23T19:47:37.867Z,9.80
2023-05-23T19:50:07.334Z,9.80
2023-05-23T19:52:36.727Z,9.53
2023-05-23T19:55:05.129Z,10.40
2023-05-23T19:57:33.173Z,10.47
2023-05-23T20:00:01.469Z,7.47
2023-05-23T20:02:29.562Z,10.23
2023-05-23T20:04:57.384Z,9.77
2023-05-23T20:07:25.547Z,10.63
2023-05-23T20:09:56.615Z,9.67
2023-05-23T20:12:24.496Z,12.00
2023-05-23T20:14:52.519Z,7.07
2023-05-23T20:17:20.504Z,9.27
2023-05-23T20:19:48.587Z,10.17
2023-05-23T20:22:16.547Z,11.50
2023-05-23T20:24:44.389Z,7.47
2023-05-23T20:27:13.803Z,8.70
2023-05-23T20:29:41.744Z,12.17
2023-05-23T20:32:09.671Z,11.73
2023-05-23T20:34:37.562Z,13.70
2023-05-23T20:37:06.540Z,10.63
2023-05-23T20:39:34.998Z,11.17
2023-05-23T20:42:03.085Z,9.03
2023-05-23T20:44:32.738Z,12.87
2023-05-23T20:47:00.855Z,15.47
2023-05-23T20:49:28.770Z,16.67
2023-05-23T20:51:56.697Z,9.07
2023-05-23T20:54:25.436Z,8.47
2023-05-23T20:56:53.948Z,12.87
2023-05-23T20:59:22.070Z,10.30
2023-05-23T21:01:52.034Z,12.97
2023-05-23T21:04:20.479Z,10.10
2023-05-23T21:06:48.401Z,13.00
2023-05-23T21:09:17.319Z,10.23
2023-05-23T21:11:45.165Z,12.57
2023-05-23T21:14:13.931Z,12.17
2023-05-23T21:16:41.772Z,9.87
2023-05-23T21:19:11.118Z,10.43
2023-05-23T21:21:39.505Z,10.70
2023-05-23T21:24:07.667Z,8.80
2023-05-23T21:26:35.550Z,8.77
2023-05-23T21:29:03.555Z,9.63
2023-05-23T21:31:40.941Z,10.90
2023-05-23T21:34:23.249Z,12.67
2023-05-23T21:36:52.309Z,11.93
2023-05-23T21:39:20.270Z,9.23
2023-05-23T21:41:48.118Z,12.97
2023-05-23T21:44:17.764Z,13.80
2023-05-23T21:46:45.895Z,10.03
2023-05-23T21:49:15.688Z,12.03
2023-05-23T21:51:44.129Z,11.17
2023-05-23T21:54:12.059Z,10.47
2023-05-23T21:56:41.130Z,10.03
2023-05-23T21:59:09.322Z,12.17
2023-05-23T22:01:37.230Z,11.67
2023-05-23T22:04:05.345Z,19.23
2023-05-23T22:06:34.742Z,8.80
2023-05-23T22:09:02.836Z,8.63
2023-05-23T22:11:33.946Z,12.93
2023-05-23T22:14:02.402Z,11.70
2023-05-23T22:16:33.547Z,10.63
2023-05-23T22:19:02.136Z,13.90
2023-05-23T22:21:30.235Z,10.87
2023-05-23T22:24:00.066Z,10.03
2023-05-23T22:26:28.415Z,12.80
2023-05-23T22:28:56.432Z,13.87
2023-05-23T22:31:25.020Z,12.20
2023-05-23T22:33:53.396Z,8.63
2023-05-23T22:36:22.038Z,10.70
2023-05-23T22:38:50.052Z,13.23
2023-05-23T22:41:19.710Z,15.33
2023-05-23T22:43:47.889Z,10.70
2023-05-23T22:46:15.965Z,15.30
2023-05-23T22:48:45.038Z,12.00
2023-05-23T22:51:14.596Z,13.67
2023-05-23T22:53:43.328Z,11.67
2023-05-23T22:56:11.339Z,13.13
2023-05-23T22:58:40.761Z,13.03
2023-05-23T23:01:08.627Z,13.13
2023-05-23T23:03:36.567Z,17.37
2023-05-23T23:06:06.401Z,9.87
2023-05-23T23:08:34.611Z,15.03
2023-05-23T23:11:02.529Z,14.20
2023-05-23T23:13:31.530Z,18.07
2023-05-23T23:16:00.764Z,11.57
2023-05-23T23:18:28.559Z,12.20
2023-05-23T23:20:56.392Z,13.57
2023-05-23T23:23:24.292Z,9.30
2023-05-23T23:25:52.391Z,12.97
2023-05-23T23:28:20.826Z,15.07
2023-05-23T23:30:48.847Z,12.53
2023-05-23T23:33:18.241Z,14.00
2023-05-23T23:35:48.479Z,15.47
2023-05-23T23:38:16.584Z,11.70
2023-05-23T23:40:45.681Z,15.53
2023-05-23T23:43:13.754Z,12.37
2023-05-23T23:45:41.589Z,12.67
2023-05-23T23:48:09.666Z,11.73
2023-05-23T23:50:39.002Z,12.87
2023-05-23T23:53:07.888Z,21.43
2023-05-23T23:55:35.799Z,15.00
2023-05-23T23:58:03.669Z,15.40
